Time;durP1;ratioP1;P1;durP2;ratioP2;P2;SDS_P1;SDS_P2;PMS_P1;PMS_P2;Temp;Humidity;BMP_temperature;BMP_pressure;BME280_temperature;BME280_humidity;BME280_pressure;Samples;Min_cycle;Max_cycle;Signal;HPM_P1;HPM_P2
2023/12/23 00:02:13;;;;;;;0.50;0.50;;;;;;;-2.29;83.37;97845.16;5065137;28;20543;-65
2023/12/23 00:04:38;;;;;;;0.50;0.50;;;;;;;-2.36;83.40;97846.81;5065428;28;20025;-66
2023/12/23 00:07:04;;;;;;;0.50;0.50;;;;;;;-2.34;83.59;97854.44;5065173;28;20021;-66
2023/12/23 00:09:29;;;;;;;0.50;0.50;;;;;;;-2.45;83.59;97847.66;5065148;28;20024;-65
2023/12/23 00:11:54;;;;;;;0.52;0.52;;;;;;;-2.45;83.65;97849.34;5046712;28;20025;-65
2023/12/23 00:14:20;;;;;;;0.60;0.60;;;;;;;-2.44;83.71;97848.47;5065122;28;20056;-66
2023/12/23 00:16:45;;;;;;;0.50;0.50;;;;;;;-2.48;83.74;97855.28;5064978;28;20025;-66
2023/12/23 00:19:11;;;;;;;0.60;0.60;;;;;;;-2.50;83.88;97851.88;5064928;28;20032;-65
2023/12/23 00:21:36;;;;;;;0.50;0.50;;;;;;;-2.57;84.08;97856.06;5064812;28;20084;-65
2023/12/23 00:24:02;;;;;;;0.50;0.50;;;;;;;-2.53;83.88;97862.88;5065026;28;20021;-65
2023/12/23 00:26:27;;;;;;;0.50;0.50;;;;;;;-2.54;84.04;97863.69;5046627;28;20504;-65
2023/12/23 00:28:52;;;;;;;0.60;0.60;;;;;;;-2.55;84.03;97864.56;5064539;28;20051;-66
2023/12/23 00:31:18;;;;;;;0.60;0.60;;;;;;;-2.71;84.00;97833.16;5065187;28;20025;-67
2023/12/23 00:33:44;;;;;;;0.55;0.55;;;;;;;-2.55;83.94;97868.78;5065220;28;20056;-67
2023/12/23 00:36:10;;;;;;;0.60;0.60;;;;;;;-2.58;83.98;97867.09;5064936;28;20044;-68
2023/12/23 00:38:36;;;;;;;0.50;0.50;;;;;;;-2.65;84.13;97860.31;5064825;28;20032;-67
2023/12/23 00:41:01;;;;;;;0.50;0.50;;;;;;;-2.68;84.16;97845.88;5064355;28;20025;-67
2023/12/23 00:43:26;;;;;;;0.60;0.60;;;;;;;-2.57;84.20;97878.94;5065117;28;20028;-66
2023/12/23 00:45:51;;;;;;;0.50;0.50;;;;;;;-2.61;84.27;97877.25;5064824;28;20024;-68
2023/12/23 00:48:17;;;;;;;0.60;0.60;;;;;;;-2.59;84.35;97878.09;5064833;28;20025;-68
2023/12/23 00:50:42;;;;;;;0.50;0.50;;;;;;;-2.72;84.38;97868.72;5064588;28;20025;-68
2023/12/23 00:53:07;;;;;;;0.50;0.50;;;;;;;-2.62;84.42;97888.25;5064677;28;20025;-67
2023/12/23 00:55:33;;;;;;;0.60;0.60;;;;;;;-2.65;84.42;97896.69;5064364;28;20029;-67
2023/12/23 00:57:58;;;;;;;0.60;0.60;;;;;;;-2.59;84.48;97888.25;5064769;28;20017;-68
2023/12/23 01:00:23;;;;;;;0.57;0.57;;;;;;;-2.59;84.48;97889.94;5064418;28;20024;-67
2023/12/23 01:02:49;;;;;;;0.50;0.50;;;;;;;-2.61;84.50;97889.94;5064589;28;20021;-67
2023/12/23 01:05:14;;;;;;;0.50;0.50;;;;;;;-2.69;84.46;97878.91;5064593;28;20025;-68
2023/12/23 01:07:41;;;;;;;0.50;0.50;;;;;;;-2.70;84.53;97888.19;5066484;28;20021;-67
2023/12/23 01:10:07;;;;;;;0.50;0.50;;;;;;;-2.71;84.61;97890.72;5068291;28;20048;-67
2023/12/23 01:12:32;;;;;;;0.50;0.50;;;;;;;-2.73;84.66;97895.81;5068268;28;20025;-68
2023/12/23 01:14:58;;;;;;;0.50;0.50;;;;;;;-2.72;84.66;97904.28;5068226;28;20020;-67
2023/12/23 01:17:23;;;;;;;0.50;0.50;;;;;;;-2.77;84.68;97891.56;5050329;28;20028;-68
2023/12/23 01:19:48;;;;;;;0.60;0.60;;;;;;;-2.78;84.48;97894.94;5051485;28;20493;-67
2023/12/23 01:22:14;;;;;;;0.50;0.50;;;;;;;-2.68;84.65;97905.97;5068056;28;20095;-67
2023/12/23 01:24:39;;;;;;;0.60;0.60;;;;;;;-2.77;84.73;97905.13;5050207;28;20065;-67
2023/12/23 01:27:04;;;;;;;0.50;0.50;;;;;;;-2.76;84.78;97904.28;5050092;28;20024;-67
2023/12/23 01:29:30;;;;;;;0.52;0.52;;;;;;;-2.74;84.59;97911.91;5067939;28;20064;-67
2023/12/23 01:31:55;;;;;;;0.50;0.50;;;;;;;-2.77;84.68;97910.19;5067746;28;20036;-67
2023/12/23 01:34:21;;;;;;;0.50;0.50;;;;;;;-2.78;84.74;97911.03;5068037;28;20113;-66
2023/12/23 01:36:46;;;;;;;0.60;0.60;;;;;;;-2.76;84.56;97908.50;5067934;28;20025;-66
2023/12/23 01:39:11;;;;;;;0.63;0.63;;;;;;;-2.81;84.20;97900.84;5067860;28;20031;-67
2023/12/23 01:41:36;;;;;;;0.55;0.55;;;;;;;-2.78;84.40;97910.19;5067480;28;20055;-66
2023/12/23 01:44:02;;;;;;;0.60;0.60;;;;;;;-2.81;84.60;97903.38;5067801;28;20453;-67
2023/12/23 01:46:28;;;;;;;0.60;0.60;;;;;;;-2.79;84.50;97901.72;5067569;28;20017;-67
2023/12/23 01:48:55;;;;;;;0.60;0.60;;;;;;;-2.79;84.75;97914.41;5067857;28;20017;-68
2023/12/23 01:51:21;;;;;;;0.50;0.50;;;;;;;-2.81;84.19;97908.47;5067261;28;20096;-67
2023/12/23 01:53:47;;;;;;;0.50;0.50;;;;;;;-2.80;83.99;97910.19;5049777;28;20376;-67
2023/12/23 01:56:14;;;;;;;0.60;0.60;;;;;;;-2.86;83.73;97900.00;5049049;28;20096;-66
2023/12/23 01:58:39;;;;;;;0.50;0.50;;;;;;;-2.83;83.81;97912.72;5067599;28;20025;-67
2023/12/23 02:01:05;;;;;;;0.50;0.50;;;;;;;-2.83;83.61;97922.88;5066812;28;20032;-67
2023/12/23 02:03:31;;;;;;;0.60;0.60;;;;;;;-2.82;82.84;97916.06;5067369;28;20017;-67
2023/12/23 02:05:56;;;;;;;0.50;0.50;;;;;;;-3.03;82.99;97893.13;5067267;28;20021;-67
2023/12/23 02:08:22;;;;;;;0.50;0.50;;;;;;;-2.82;83.43;97919.47;5067219;28;20027;-67
2023/12/23 02:10:53;;;;;;;0.50;0.50;;;;;;;-2.84;83.17;97923.69;5066810;28;20017;-68
2023/12/23 02:13:25;;;;;;;0.60;0.60;;;;;;;-2.88;83.21;97929.59;5067244;28;20027;-67
2023/12/23 02:15:51;;;;;;;;;;;;;;;-2.88;83.51;97920.31;5067703;28;20202;-67
2023/12/23 02:18:16;;;;;;;0.50;0.50;;;;;;;-2.97;83.60;97920.22;5048963;28;19917;-67
2023/12/23 02:20:42;;;;;;;0.50;0.50;;;;;;;-2.99;83.66;97938.00;5066882;28;20025;-67
2023/12/23 02:23:07;;;;;;;0.50;0.50;;;;;;;-2.98;83.60;97938.84;5049091;28;20025;-67
2023/12/23 02:25:33;;;;;;;0.50;0.50;;;;;;;-3.07;83.82;97923.56;5048888;28;20025;-67
2023/12/23 02:28:09;;;;;;;0.50;0.50;;;;;;;-3.00;83.81;97941.38;5048830;28;20016;-67
2023/12/23 02:30:40;;;;;;;0.50;0.50;;;;;;;-2.93;83.98;97949.03;5066631;28;20045;-67
2023/12/23 02:33:06;;;;;;;0.50;0.50;;;;;;;-3.00;84.02;97936.31;5049031;28;20028;-66
2023/12/23 02:35:31;;;;;;;0.50;0.50;;;;;;;-3.02;83.95;97943.03;5066727;28;20048;-67
2023/12/23 02:37:56;;;;;;;0.60;0.60;;;;;;;-2.99;83.82;97943.06;5066702;28;20029;-67
2023/12/23 02:40:22;;;;;;;0.50;0.50;;;;;;;-2.99;83.92;97940.53;5066568;28;20072;-67
2023/12/23 02:42:47;;;;;;;0.50;0.50;;;;;;;-2.98;83.57;97946.47;5066493;28;20021;-67
2023/12/23 02:45:12;;;;;;;0.60;0.60;;;;;;;-2.93;83.90;97964.25;5066492;28;20025;-67
2023/12/23 02:47:38;;;;;;;0.50;0.50;;;;;;;-2.97;83.81;97965.91;5066601;28;20025;-67
2023/12/23 02:50:03;;;;;;;0.50;0.50;;;;;;;-2.93;84.10;97976.97;5066217;28;20028;-67
2023/12/23 02:52:29;;;;;;;0.50;0.50;;;;;;;-2.94;83.96;97977.81;5066450;28;20029;-67
2023/12/23 02:54:54;;;;;;;0.50;0.50;;;;;;;-2.96;83.93;97977.81;5066994;28;20025;-67
2023/12/23 02:57:19;;;;;;;0.60;0.60;;;;;;;-3.08;83.84;97962.50;5065937;28;20029;-68
2023/12/23 02:59:45;;;;;;;0.50;0.50;;;;;;;-3.02;83.87;97970.16;5066260;28;20104;-67
2023/12/23 03:02:10;;;;;;;0.60;0.60;;;;;;;-3.01;83.81;97974.38;5066157;28;20029;-66
2023/12/23 03:04:35;;;;;;;0.57;0.57;;;;;;;-2.98;83.10;97989.63;5066397;28;20487;-67
2023/12/23 03:07:01;;;;;;;0.60;0.60;;;;;;;-2.99;83.36;97993.84;5066196;28;20029;-68
2023/12/23 03:09:26;;;;;;;0.60;0.60;;;;;;;-3.02;82.71;97993.00;5065931;28;20104;-67
2023/12/23 03:11:52;;;;;;;0.60;0.60;;;;;;;-3.00;82.51;98004.00;5065687;28;20020;-67
2023/12/23 03:14:17;;;;;;;0.60;0.60;;;;;;;-2.98;81.95;98009.94;5066161;28;20052;-67
2023/12/23 03:16:43;;;;;;;0.60;0.60;;;;;;;-3.05;82.22;97993.81;5065935;28;20025;-68
2023/12/23 03:19:09;;;;;;;0.60;0.60;;;;;;;-3.01;82.01;98004.84;5066014;28;20032;-68
2023/12/23 03:21:34;;;;;;;0.60;0.60;;;;;;;-3.02;82.20;98011.59;5065780;28;20021;-68
2023/12/23 03:24:00;;;;;;;0.60;0.60;;;;;;;-2.98;81.60;98004.84;5065773;28;20354;-68
2023/12/23 03:26:25;;;;;;;0.50;0.50;;;;;;;-2.98;81.83;98007.41;5065675;28;20084;-67
2023/12/23 03:28:51;;;;;;;0.60;0.60;;;;;;;-3.08;81.87;98003.94;5065564;28;20124;-67
2023/12/23 03:31:16;;;;;;;0.60;0.60;;;;;;;-3.04;81.33;98015.84;5065137;28;20045;-67
2023/12/23 03:33:41;;;;;;;0.60;0.60;;;;;;;-3.05;81.24;98015.81;5065869;28;20468;-67
2023/12/23 03:36:07;;;;;;;0.60;0.60;;;;;;;-3.14;81.66;98019.97;5065622;28;20021;-67
2023/12/23 03:38:32;;;;;;;0.60;0.60;;;;;;;-3.27;80.83;97995.31;5065644;28;20021;-67
2023/12/23 03:40:58;;;;;;;0.50;0.50;;;;;;;-3.14;80.63;98026.72;5065239;28;20029;-66
2023/12/23 03:43:23;;;;;;;0.60;0.60;;;;;;;-3.18;80.77;98030.91;5065601;28;20025;-67
2023/12/23 03:45:48;;;;;;;1.77;1.67;;;;;;;-3.22;79.95;98036.81;5065581;28;20060;-67
2023/12/23 03:48:14;;;;;;;0.60;0.60;;;;;;;-3.24;79.98;98029.19;5065665;28;20021;-67
2023/12/23 03:50:39;;;;;;;0.50;0.50;;;;;;;-3.31;79.60;98032.53;5065612;28;20019;-67
2023/12/23 03:53:05;;;;;;;0.50;0.50;;;;;;;-3.33;79.24;98029.13;5047367;28;20361;-67
2023/12/23 03:55:32;;;;;;;0.50;0.50;;;;;;;-3.34;79.17;98026.56;5065196;28;20060;-66
2023/12/23 03:58:03;;;;;;;0.57;0.57;;;;;;;-3.33;79.50;98046.88;5065314;28;20372;-67
2023/12/23 04:00:28;;;;;;;0.60;0.60;;;;;;;-3.39;79.32;98037.53;5064892;28;20084;-67
2023/12/23 04:02:54;;;;;;;0.50;0.50;;;;;;;-3.46;78.81;98042.50;5065393;28;20092;-67
2023/12/23 04:05:19;;;;;;;0.50;0.50;;;;;;;-3.50;78.89;98031.50;5047242;28;20032;-67
2023/12/23 04:07:49;;;;;;;0.50;0.50;;;;;;;-3.46;79.18;98045.03;5065177;28;20025;-67
2023/12/23 04:10:15;;;;;;;0.60;0.60;;;;;;;-3.49;79.34;98043.34;5064965;28;20017;-67
2023/12/23 04:12:40;;;;;;;0.60;0.60;;;;;;;-3.47;79.41;98049.28;5064945;28;20028;-67
2023/12/23 04:15:07;;;;;;;0.60;0.60;;;;;;;-3.52;79.00;98048.38;5065098;28;20020;-67
2023/12/23 04:17:32;;;;;;;0.60;0.60;;;;;;;-3.54;78.88;98050.91;5065010;28;20029;-68
2023/12/23 04:19:58;;;;;;;0.60;0.60;;;;;;;-3.55;79.84;98061.91;5047093;28;20082;-66
2023/12/23 04:22:23;;;;;;;0.60;0.60;;;;;;;-3.62;79.79;98060.09;5064871;28;20025;-67
2023/12/23 04:24:48;;;;;;;0.50;0.50;;;;;;;-3.63;79.98;98063.50;5046902;28;20097;-67
2023/12/23 04:27:14;;;;;;;0.60;0.60;;;;;;;-3.67;80.12;98062.59;5064535;28;20021;-67
2023/12/23 04:29:39;;;;;;;0.60;0.60;;;;;;;-3.61;80.38;98069.44;5046857;28;20044;-68
2023/12/23 04:32:04;;;;;;;0.60;0.60;;;;;;;-3.63;80.42;98071.97;5064861;28;20079;-67
2023/12/23 04:34:30;;;;;;;0.60;0.60;;;;;;;-3.68;80.51;98062.59;5046937;28;20039;-67
2023/12/23 04:36:55;;;;;;;0.60;0.60;;;;;;;-3.69;80.80;98068.50;5064826;28;20025;-67
2023/12/23 04:39:20;;;;;;;0.55;0.55;;;;;;;-3.75;80.66;98062.50;5046779;28;20032;-67
2023/12/23 04:41:48;;;;;;;0.60;0.60;;;;;;;-3.75;80.59;98071.78;5066373;28;20418;-68
2023/12/23 04:44:14;;;;;;;0.60;0.60;;;;;;;-3.75;80.44;98077.72;5068948;28;20025;-67
2023/12/23 04:46:41;;;;;;;0.60;0.60;;;;;;;-3.76;80.74;98073.50;5068881;28;20025;-67
2023/12/23 04:49:07;;;;;;;0.60;0.60;;;;;;;-3.72;80.59;98081.97;5068804;28;20028;-68
2023/12/23 04:51:32;;;;;;;0.60;0.60;;;;;;;-3.78;80.32;98064.16;5068705;28;20380;-67
2023/12/23 04:53:57;;;;;;;0.50;0.50;;;;;;;-3.72;80.23;98076.06;5068590;28;20088;-67
2023/12/23 04:56:23;;;;;;;0.60;0.60;;;;;;;-3.70;80.46;98074.38;5068444;28;20028;-67
2023/12/23 04:58:48;;;;;;;0.68;0.68;;;;;;;-3.87;80.21;98048.03;5068684;28;20039;-67
2023/12/23 05:01:14;;;;;;;0.60;0.60;;;;;;;-3.73;80.67;98070.13;5068367;28;20032;-67
2023/12/23 05:03:40;;;;;;;0.60;0.60;;;;;;;-3.81;80.49;98066.66;5068553;28;20103;-68
2023/12/23 05:06:06;;;;;;;0.60;0.60;;;;;;;-3.80;80.53;98069.22;5068350;28;20037;-67
2023/12/23 05:08:32;;;;;;;0.60;0.60;;;;;;;-3.78;80.56;98077.69;5068402;28;20050;-67
2023/12/23 05:10:58;;;;;;;0.60;0.60;;;;;;;-3.81;80.43;98076.81;5068163;28;20104;-66
2023/12/23 05:13:23;;;;;;;0.60;0.60;;;;;;;-3.84;79.71;98071.69;5068353;28;20033;-67
2023/12/23 05:15:49;;;;;;;0.60;0.60;;;;;;;-3.82;80.40;98081.03;5068268;28;20025;-67
2023/12/23 05:18:14;;;;;;;0.60;0.60;;;;;;;-3.77;79.64;98096.31;5068397;28;20055;-67
2023/12/23 05:20:39;;;;;;;0.50;0.50;;;;;;;-3.81;79.52;98095.41;5067940;28;20083;-67
2023/12/23 05:23:05;;;;;;;0.50;0.50;;;;;;;-3.77;79.73;98109.81;5050274;28;20108;-67
2023/12/23 05:25:30;;;;;;;0.60;0.60;;;;;;;-3.73;80.02;98098.03;5068054;28;20025;-67
2023/12/23 05:27:55;;;;;;;0.60;0.60;;;;;;;-3.83;79.37;98098.78;5068032;28;20469;-67
2023/12/23 05:30:21;;;;;;;0.50;0.50;;;;;;;-3.81;78.56;98094.53;5049806;28;20072;-67
2023/12/23 05:32:46;;;;;;;0.60;0.60;;;;;;;-3.83;79.42;98092.00;5067874;28;20051;-67
2023/12/23 05:35:12;;;;;;;0.60;0.60;;;;;;;-3.92;78.68;98095.28;5068090;28;20055;-68
2023/12/23 05:37:37;;;;;;;0.60;0.60;;;;;;;-3.90;78.58;98097.84;5067884;28;20032;-67
2023/12/23 05:40:04;;;;;;;0.50;0.50;;;;;;;-3.87;78.12;98100.41;5067836;28;20048;-67
2023/12/23 05:42:30;;;;;;;0.60;0.60;;;;;;;-3.82;79.15;98103.84;5067723;28;20108;-67
2023/12/23 05:44:55;;;;;;;0.50;0.50;;;;;;;-3.86;79.05;98097.03;5050016;28;20052;-67
2023/12/23 05:47:20;;;;;;;0.50;0.50;;;;;;;-3.84;79.17;98102.97;5067723;28;20044;-67
2023/12/23 05:49:46;;;;;;;0.60;0.60;;;;;;;-3.86;78.95;98105.50;5049541;28;20049;-67
2023/12/23 05:52:11;;;;;;;0.60;0.60;;;;;;;-3.87;79.30;98096.19;5067494;28;20028;-67
2023/12/23 05:54:36;;;;;;;0.60;0.60;;;;;;;-3.86;79.13;98107.16;5067096;28;20135;-67
2023/12/23 05:57:02;;;;;;;0.60;0.60;;;;;;;-3.83;79.02;98108.91;5049350;28;20389;-68
2023/12/23 05:59:27;;;;;;;0.60;0.60;;;;;;;-3.86;78.96;98104.63;5067459;28;20044;-67
2023/12/23 06:01:52;;;;;;;0.60;0.60;;;;;;;-3.92;78.80;98114.69;5067145;28;20025;-67
2023/12/23 06:04:18;;;;;;;0.60;0.60;;;;;;;-3.99;79.10;98101.09;5067361;28;20115;-67
2023/12/23 06:06:43;;;;;;;0.65;0.65;;;;;;;-4.09;78.63;98090.00;5067096;28;20021;-68
2023/12/23 06:09:09;;;;;;;0.60;0.60;;;;;;;-4.09;77.60;98100.13;5067468;28;20025;-67
2023/12/23 06:11:35;;;;;;;0.60;0.60;;;;;;;-4.03;78.04;98106.97;5048821;28;20021;-67
2023/12/23 06:14:00;;;;;;;0.60;0.60;;;;;;;-4.02;77.98;98109.50;5067160;28;20059;-67
2023/12/23 06:16:26;;;;;;;0.50;0.50;;;;;;;-4.05;78.53;98103.53;5067107;28;20028;-67
2023/12/23 06:18:51;;;;;;;0.60;0.60;;;;;;;-4.10;77.85;98113.63;5067203;28;20059;-67
2023/12/23 06:21:16;;;;;;;0.50;0.50;;;;;;;-4.06;77.97;98110.31;5066842;28;20055;-68
2023/12/23 06:23:42;;;;;;;0.60;0.60;;;;;;;-4.15;78.40;98108.50;5067041;28;20025;-67
2023/12/23 06:26:09;;;;;;;0.60;0.60;;;;;;;-4.20;77.67;98111.81;5066719;28;20068;-67
2023/12/23 06:28:35;;;;;;;0.60;0.60;;;;;;;-4.20;76.49;98124.47;5066919;28;20017;-67
2023/12/23 06:31:00;;;;;;;0.60;0.60;;;;;;;-4.23;76.34;98123.59;5066833;28;20028;-67
2023/12/23 06:33:25;;;;;;;0.50;0.50;;;;;;;-4.28;75.59;98124.38;5066946;28;20036;-67
2023/12/23 06:35:51;;;;;;;0.50;0.50;;;;;;;-4.25;77.14;98126.94;5048617;28;20032;-66
2023/12/23 06:38:17;;;;;;;0.60;0.60;;;;;;;-4.26;77.78;98130.28;5066744;28;20094;-68
2023/12/23 06:40:43;;;;;;;0.60;0.60;;;;;;;-4.26;78.41;98130.28;5066663;28;20024;-67
2023/12/23 06:43:08;;;;;;;0.60;0.60;;;;;;;-4.28;78.61;98137.03;5048514;28;20123;-68
2023/12/23 06:45:34;;;;;;;0.60;0.60;;;;;;;-4.39;78.61;98125.06;5066769;28;20159;-67
2023/12/23 06:47:59;;;;;;;0.50;0.50;;;;;;;-4.40;78.88;98137.69;5066810;28;20028;-67
2023/12/23 06:50:24;;;;;;;0.60;0.60;;;;;;;-4.40;79.22;98128.41;5066615;28;20449;-66
2023/12/23 06:52:50;;;;;;;0.60;0.60;;;;;;;-4.44;79.30;98130.88;5048621;28;20025;-67
2023/12/23 06:55:16;;;;;;;0.60;0.60;;;;;;;-4.46;79.29;98132.53;5048571;28;20056;-68
2023/12/23 06:57:41;;;;;;;0.50;0.50;;;;;;;-4.50;79.21;98129.09;5066135;28;20028;-67
2023/12/23 07:00:07;;;;;;;0.55;0.55;;;;;;;-4.45;79.38;98131.69;5048519;28;20032;-67
2023/12/23 07:02:33;;;;;;;0.60;0.60;;;;;;;-4.52;79.70;98118.94;5066425;28;20021;-67
2023/12/23 07:04:58;;;;;;;0.60;0.60;;;;;;;-4.47;79.52;98134.22;5065252;28;20056;-67
2023/12/23 07:07:24;;;;;;;0.60;0.60;;;;;;;-4.58;79.78;98113.78;5066361;28;20452;-67
2023/12/23 07:09:49;;;;;;;0.60;0.60;;;;;;;-4.50;79.73;98127.44;5065989;28;20095;-67
2023/12/23 07:12:15;;;;;;;0.60;0.60;;;;;;;-4.49;79.88;98135.88;5065918;28;20031;-67
2023/12/23 07:14:41;;;;;;;0.60;0.60;;;;;;;-4.49;80.20;98139.25;5066098;28;20033;-67
2023/12/23 07:17:06;;;;;;;0.55;0.55;;;;;;;-4.43;79.91;98147.78;5065946;28;20021;-67
2023/12/23 07:19:33;;;;;;;0.52;0.52;;;;;;;-4.43;79.97;98146.09;5066199;28;20090;-67
2023/12/23 07:21:58;;;;;;;0.60;0.60;;;;;;;-4.46;80.06;98137.59;5065652;28;20029;-67
2023/12/23 07:24:24;;;;;;;0.50;0.50;;;;;;;-4.43;80.25;98146.09;5065799;28;20031;-67
2023/12/23 07:26:49;;;;;;;0.60;0.60;;;;;;;-4.37;80.25;98147.88;5065592;28;20056;-68
2023/12/23 07:29:16;;;;;;;0.55;0.55;;;;;;;-4.50;80.39;98129.97;5047585;28;20072;-68
2023/12/23 07:31:41;;;;;;;0.52;0.52;;;;;;;-4.34;80.39;98147.09;5065571;28;20028;-67
2023/12/23 07:34:07;;;;;;;0.50;0.50;;;;;;;-4.40;80.36;98150.34;5047660;28;20029;-68
2023/12/23 07:36:32;;;;;;;0.60;0.60;;;;;;;-4.31;80.35;98149.66;5065582;28;20112;-68
2023/12/23 07:38:58;;;;;;;0.60;0.60;;;;;;;-4.24;80.46;98156.50;5065612;28;20029;-68
2023/12/23 07:41:23;;;;;;;0.60;0.60;;;;;;;-4.25;80.35;98158.19;5065206;28;20021;-68
2023/12/23 07:43:49;;;;;;;0.60;0.60;;;;;;;-4.18;80.63;98164.19;5065466;28;20108;-68
2023/12/23 07:46:15;;;;;;;0.60;0.60;;;;;;;-4.14;80.24;98157.50;5065292;28;20029;-68
2023/12/23 07:48:40;;;;;;;0.60;0.60;;;;;;;-4.04;80.30;98158.50;5065285;28;20033;-68
2023/12/23 07:51:07;;;;;;;0.60;0.60;;;;;;;-4.04;80.19;98154.25;5065281;28;20025;-68
2023/12/23 07:53:32;;;;;;;0.50;0.50;;;;;;;-3.92;79.99;98156.13;5065268;28;20025;-67
2023/12/23 07:55:58;;;;;;;0.50;0.50;;;;;;;-3.88;79.47;98172.22;5064879;28;20027;-67
2023/12/23 07:58:23;;;;;;;0.60;0.60;;;;;;;-3.91;79.50;98149.34;5065175;28;20028;-67
2023/12/23 08:00:48;;;;;;;0.50;0.50;;;;;;;-3.81;79.02;98165.53;5065014;28;20557;-68
2023/12/23 08:03:14;;;;;;;0.60;0.60;;;;;;;-3.80;78.39;98160.50;5065045;28;20021;-67
2023/12/23 08:05:39;;;;;;;0.50;0.50;;;;;;;-3.72;78.07;98170.72;5065147;28;20020;-67
2023/12/23 08:08:05;;;;;;;0.50;0.50;;;;;;;-3.70;78.13;98163.16;5047164;28;20051;-68
2023/12/23 08:10:30;;;;;;;0.50;0.50;;;;;;;-3.64;78.96;98160.69;5065089;28;20694;-67
2023/12/23 08:12:56;;;;;;;0.60;0.60;;;;;;;-3.52;79.54;98160.00;5064864;28;20060;-67
2023/12/23 08:15:21;;;;;;;0.50;0.50;;;;;;;-3.40;78.48;98166.88;5064935;28;20033;-68
2023/12/23 08:17:46;;;;;;;0.55;0.55;;;;;;;-3.30;77.72;98158.56;5064595;28;20080;-67
2023/12/23 08:20:12;;;;;;;0.60;0.60;;;;;;;-3.07;78.31;98182.50;5064687;28;20043;-68
2023/12/23 08:22:37;;;;;;;0.50;0.50;;;;;;;-3.02;77.91;98174.06;5046986;28;20021;-67
2023/12/23 08:25:03;;;;;;;0.52;0.52;;;;;;;-2.88;77.75;98175.91;5064887;28;20025;-67
2023/12/23 08:27:28;;;;;;;0.60;0.60;;;;;;;-2.75;77.53;98185.34;5064575;28;20021;-68
2023/12/23 08:29:53;;;;;;;0.50;0.50;;;;;;;-2.71;76.72;98175.22;5064624;28;20044;-68
2023/12/23 08:32:19;;;;;;;0.50;0.50;;;;;;;-2.79;77.21;98163.31;5064633;28;20029;-68
2023/12/23 08:34:47;;;;;;;0.50;0.50;;;;;;;-2.59;77.44;98179.56;5064873;28;20027;-67
2023/12/23 08:37:12;;;;;;;0.60;0.60;;;;;;;-2.46;77.46;98180.53;5046614;28;20036;-67
2023/12/23 08:39:37;;;;;;;0.50;0.50;;;;;;;-2.29;77.98;98189.13;5064726;28;20107;-68
2023/12/23 08:42:03;;;;;;;0.50;0.50;;;;;;;-2.12;77.50;98196.03;5046568;28;20083;-67
2023/12/23 08:44:28;;;;;;;0.60;0.60;;;;;;;-1.95;77.74;98202.94;5064690;28;20025;-67
2023/12/23 08:46:54;;;;;;;0.50;0.50;;;;;;;-1.82;78.16;98199.59;5064507;28;20072;-67
2023/12/23 08:49:19;;;;;;;0.50;0.50;;;;;;;-1.75;74.80;98193.72;5064701;28;20100;-67
2023/12/23 08:51:44;;;;;;;0.50;0.50;;;;;;;-1.51;74.14;98209.09;5064418;28;20025;-67
2023/12/23 08:54:10;;;;;;;0.50;0.50;;;;;;;-1.35;75.30;98207.47;5064705;28;20111;-68
2023/12/23 08:56:35;;;;;;;0.50;0.50;;;;;;;-1.30;74.63;98208.38;5064518;28;20025;-67
2023/12/23 08:59:00;;;;;;;0.50;0.50;;;;;;;-0.90;76.11;98207.66;5064569;28;20025;-68
2023/12/23 09:01:26;;;;;;;0.50;0.50;;;;;;;-0.52;77.42;98207.69;5064369;28;20098;-68
2023/12/23 09:03:52;;;;;;;0.50;0.50;;;;;;;0.02;78.74;98208.56;5064453;28;20028;-67
2023/12/23 09:06:17;;;;;;;0.50;0.50;;;;;;;0.48;78.08;98205.88;5064573;28;20025;-68
2023/12/23 09:08:43;;;;;;;4.88;4.68;;;;;;;1.21;77.82;98214.97;5064628;28;20021;-68
2023/12/23 09:11:08;;;;;;;0.50;0.50;;;;;;;1.69;77.04;98216.31;5063909;28;20047;-68
2023/12/23 09:13:33;;;;;;;0.40;0.40;;;;;;;2.26;76.96;98221.81;5064352;28;20071;-68
2023/12/23 09:16:03;;;;;;;0.40;0.40;;;;;;;2.80;76.49;98224.63;5064268;28;20055;-68
2023/12/23 09:18:28;;;;;;;0.50;0.50;;;;;;;3.20;75.48;98224.13;5064316;28;20024;-67
2023/12/23 09:20:53;;;;;;;0.40;0.40;;;;;;;3.32;74.82;98228.25;5064245;28;20354;-67
2023/12/23 09:23:20;;;;;;;0.50;0.50;;;;;;;3.24;74.10;98236.91;5063917;28;20163;-67
2023/12/23 09:25:45;;;;;;;0.50;0.50;;;;;;;3.09;74.66;98233.69;5063912;28;20029;-68
2023/12/23 09:28:10;;;;;;;0.50;0.50;;;;;;;3.08;74.53;98232.81;5064940;28;20399;-68
2023/12/23 09:30:36;;;;;;;0.40;0.40;;;;;;;2.81;74.63;98229.75;5067859;28;20063;-68
2023/12/23 09:33:01;;;;;;;0.40;0.40;;;;;;;2.29;74.91;98229.47;5067798;28;20039;-69
2023/12/23 09:35:26;;;;;;;0.50;0.50;;;;;;;1.73;75.59;98237.63;5067803;28;20029;-69
2023/12/23 09:37:52;;;;;;;0.50;0.50;;;;;;;1.44;76.92;98246.31;5049782;28;20021;-68
2023/12/23 09:40:17;;;;;;;0.50;0.50;;;;;;;1.19;77.99;98247.34;5067242;28;20051;-68
2023/12/23 09:42:43;;;;;;;0.50;0.50;;;;;;;0.86;78.28;98215.97;5067647;28;20031;-68
2023/12/23 09:45:13;;;;;;;0.50;0.50;;;;;;;1.23;79.38;98243.91;5067611;28;20024;-67
2023/12/23 09:47:38;;;;;;;0.50;0.50;;;;;;;1.59;80.20;98250.50;5067684;28;20057;-65
2023/12/23 09:50:04;;;;;;;0.50;0.50;;;;;;;2.00;79.91;98242.53;5067548;28;20017;-66
2023/12/23 09:52:30;;;;;;;0.50;0.50;;;;;;;2.42;79.12;98248.13;5067059;28;20029;-66
2023/12/23 09:54:58;;;;;;;0.50;0.50;;;;;;;3.03;78.82;98255.13;5067397;28;20040;-66
2023/12/23 09:57:24;;;;;;;0.50;0.50;;;;;;;3.49;76.21;98257.09;5049254;28;20033;-66
2023/12/23 09:59:51;;;;;;;0.50;0.50;;;;;;;3.89;72.71;98241.09;5049239;28;20029;-65
2023/12/23 10:02:17;;;;;;;0.50;0.50;;;;;;;4.02;72.71;98251.16;5067556;28;20056;-66
2023/12/23 10:04:42;;;;;;;0.50;0.50;;;;;;;4.00;72.28;98242.63;5067485;28;20045;-67
2023/12/23 10:07:07;;;;;;;0.50;0.50;;;;;;;3.57;69.89;98248.44;5067195;28;20031;-65
2023/12/23 10:09:33;;;;;;;0.43;0.43;;;;;;;3.02;70.21;98257.72;5067405;28;20018;-66
2023/12/23 10:12:01;;;;;;;0.50;0.50;;;;;;;2.51;70.89;98251.47;5049087;28;20481;-66
2023/12/23 10:14:26;;;;;;;0.50;0.50;;;;;;;2.11;71.09;98261.19;5067146;28;20032;-66
2023/12/23 10:16:53;;;;;;;0.50;0.50;;;;;;;1.69;71.97;98252.13;5067109;28;20021;-66
2023/12/23 10:19:18;;;;;;;0.50;0.50;;;;;;;1.30;72.13;98256.66;5067163;28;20077;-66
2023/12/23 10:21:43;;;;;;;0.50;0.50;;;;;;;1.07;73.04;98263.56;5066701;28;20032;-66
2023/12/23 10:24:09;;;;;;;0.50;0.50;;;;;;;1.01;75.78;98263.59;5048783;28;20024;-65
2023/12/23 10:26:34;;;;;;;0.50;0.50;;;;;;;0.90;74.70;98257.69;5066545;28;20326;-66
2023/12/23 10:29:04;;;;;;;0.50;0.50;;;;;;;0.63;72.58;98267.13;5066703;28;20067;-67
2023/12/23 10:31:33;;;;;;;0.50;0.50;;;;;;;0.52;73.88;98265.47;5066831;28;20083;-66
2023/12/23 10:34:05;;;;;;;0.50;0.50;;;;;;;0.59;75.16;98266.31;5066654;28;20047;-67
2023/12/23 10:36:31;;;;;;;0.50;0.50;;;;;;;0.69;76.95;98267.09;5066765;28;20055;-66
2023/12/23 10:39:02;;;;;;;0.50;0.50;;;;;;;0.53;75.74;98269.72;5066611;28;20056;-66
2023/12/23 10:41:51;;;;;;;0.60;0.60;;;;;;;0.36;76.32;98272.28;5066348;28;20055;-66
2023/12/23 10:44:17;;;;;;;0.50;0.50;;;;;;;0.21;76.49;98271.47;5066622;28;20032;-65
2023/12/23 10:46:43;;;;;;;0.50;0.50;;;;;;;-0.09;74.55;98267.22;5066223;28;20445;-66
2023/12/23 10:49:09;;;;;;;0.50;0.50;;;;;;;-0.21;76.41;98280.81;5066528;28;20171;-66
2023/12/23 10:51:34;;;;;;;0.50;0.50;;;;;;;-0.36;77.02;98272.31;5066398;28;20017;-64
2023/12/23 10:54:01;;;;;;;0.40;0.40;;;;;;;-0.41;77.79;98276.53;5066143;28;20032;-65
2023/12/23 10:56:26;;;;;;;0.40;0.40;;;;;;;-0.45;76.90;98279.94;5066059;28;20021;-65
2023/12/23 10:58:53;;;;;;;0.45;0.45;;;;;;;-0.42;76.04;98285.03;5066342;28;20080;-65
2023/12/23 11:01:20;;;;;;;0.50;0.50;;;;;;;-0.24;77.78;98280.81;5048236;28;20031;-65
2023/12/23 11:03:50;;;;;;;0.50;0.50;;;;;;;0.01;79.03;98278.28;5066181;28;20029;-66
2023/12/23 11:06:18;;;;;;;0.50;0.50;;;;;;;0.27;79.22;98270.63;5048225;28;20031;-65
2023/12/23 11:08:44;;;;;;;0.50;0.50;;;;;;;0.49;79.75;98265.47;5066021;28;20032;-65
2023/12/23 11:11:10;;;;;;;0.43;0.43;;;;;;;0.88;78.71;98261.97;5065909;28;20024;-65
2023/12/23 11:13:36;;;;;;;0.50;0.50;;;;;;;1.46;75.86;98263.38;5065853;28;20020;-65
2023/12/23 11:16:02;;;;;;;0.50;0.50;;;;;;;2.08;73.84;98259.53;5066079;28;20545;-65
2023/12/23 11:18:28;;;;;;;0.45;0.45;;;;;;;2.50;72.84;98260.84;5065962;28;20028;-65
2023/12/23 11:20:54;;;;;;;0.50;0.50;;;;;;;3.10;72.04;98266.13;5065797;28;20428;-66
2023/12/23 11:23:28;;;;;;;0.50;0.50;;;;;;;3.65;70.48;98271.41;5065742;28;20028;-66
2023/12/23 11:25:54;;;;;;;0.43;0.43;;;;;;;4.05;68.21;98261.38;5065829;28;20025;-65
2023/12/23 11:28:20;;;;;;;0.50;0.50;;;;;;;4.21;67.80;98267.97;5047326;28;20025;-66